Main page
METAR-TAF:

METAR-TAF

Airports :

Yakutat Airport

Yakutat, Alaska, United States

latitude: 59-31N, longitude: 139-40W, elevation: 11 m

Current weather observation

The report was made 29 minutes ago, at 22:53 UTC
Wind 5 kt from the Northeast
Temperature 2°C
Humidity 87%
Pressure 1015 hPa
Visibility: 16.1 km
Scattered clouds at a height of 900 ft
Broken clouds at a height of 3600 ft
Overcast at a height of 7000 ft

METAR: PAYA 232253Z AUTO 05005KT 10SM SCT009 BKN036 OVC070 02/00 A2997 RMK AO2 SLP149 T00220000 TSNO $

Time: 14:22 (23:22 UTC)

Forecast

The report was made 5 hours and 51 minutes ago, at 17:31 UTC
Forecast valid from 23 at 18 UTC to 24 at 18 UTC
Wind kt from the North
Visibility: 4.8 km
Clear sky
mist
Temporary
from 23 at 18 UTC to 23 at 22 UTC
Visibility: 0.8 km
fog
From 23 at 2200 UTC
Wind 3 kt from variable directions
Visibility: 10 km
Clear sky

TAF: PAYA 231731Z 2318/2418 00000KT 3SM BR SKC TEMPO 2318/2322 1/2SM FG FM232200 VRB03KT P6SM SKC AMD LTD TO CLD VIS AND WIND

Weather observations and forecasts of more than 4000 airports (METAR and TAF reports).

The available stations are represented by yellow and red dots on the map.

Hover mouse over dot to see the name of the station.

Then click to see weather observations and forecasts.

To change the map : click on the green buttons with a black cross to zoom in, on the green button with a dash to zoom out, or on the green arrows for adjacent maps.


METAR-TAF: